sensor_id;sensor_type;location;lat;lon;timestamp;temperature;humidity
13375;DHT22;6756;51.354;15.754;2024-01-30T00:00:04;-3.30;99.90
13375;DHT22;6756;51.354;15.754;2024-01-30T00:04:05;-3.40;99.90
13375;DHT22;6756;51.354;15.754;2024-01-30T00:08:06;-3.40;99.90
13375;DHT22;6756;51.354;15.754;2024-01-30T00:12:07;-3.50;99.90
13375;DHT22;6756;51.354;15.754;2024-01-30T00:16:08;-3.60;99.90
13375;DHT22;6756;51.354;15.754;2024-01-30T00:20:10;-3.70;99.90
13375;DHT22;6756;51.354;15.754;2024-01-30T00:24:11;-3.70;99.90
13375;DHT22;6756;51.354;15.754;2024-01-30T00:28:11;-3.70;99.90
13375;DHT22;6756;51.354;15.754;2024-01-30T00:32:12;-3.60;99.90
13375;DHT22;6756;51.354;15.754;2024-01-30T00:36:13;-3.60;99.90
13375;DHT22;6756;51.354;15.754;2024-01-30T00:40:14;-3.70;99.90
13375;DHT22;6756;51.354;15.754;2024-01-30T00:44:16;-3.60;99.90
13375;DHT22;6756;51.354;15.754;2024-01-30T00:48:16;-3.60;99.90
13375;DHT22;6756;51.354;15.754;2024-01-30T00:52:17;-3.60;99.90
13375;DHT22;6756;51.354;15.754;2024-01-30T00:56:19;-3.70;99.90
13375;DHT22;6756;51.354;15.754;2024-01-30T01:00:20;-3.70;99.90
13375;DHT22;6756;51.354;15.754;2024-01-30T01:04:21;-3.80;99.90
13375;DHT22;6756;51.354;15.754;2024-01-30T01:08:22;-3.80;99.90
13375;DHT22;6756;51.354;15.754;2024-01-30T01:12:22;-3.80;99.90
13375;DHT22;6756;51.354;15.754;2024-01-30T01:16:23;-3.80;99.90
13375;DHT22;6756;51.354;15.754;2024-01-30T01:20:24;-3.70;99.90
13375;DHT22;6756;51.354;15.754;2024-01-30T01:24:24;-3.60;99.90
13375;DHT22;6756;51.354;15.754;2024-01-30T01:28:25;-3.50;99.90
13375;DHT22;6756;51.354;15.754;2024-01-30T01:32:26;-3.40;99.90
13375;DHT22;6756;51.354;15.754;2024-01-30T01:36:26;-3.40;99.90
13375;DHT22;6756;51.354;15.754;2024-01-30T01:40:27;-3.40;99.90
13375;DHT22;6756;51.354;15.754;2024-01-30T01:44:28;-3.50;99.90
13375;DHT22;6756;51.354;15.754;2024-01-30T01:48:29;-3.50;99.90
13375;DHT22;6756;51.354;15.754;2024-01-30T01:52:30;-3.60;99.90
13375;DHT22;6756;51.354;15.754;2024-01-30T01:56:32;-3.70;99.90
13375;DHT22;6756;51.354;15.754;2024-01-30T02:00:34;-3.80;99.90
13375;DHT22;6756;51.354;15.754;2024-01-30T02:04:36;-3.90;99.90
13375;DHT22;6756;51.354;15.754;2024-01-30T02:08:37;-3.90;99.90
13375;DHT22;6756;51.354;15.754;2024-01-30T02:12:39;-4.00;99.90
13375;DHT22;6756;51.354;15.754;2024-01-30T02:16:40;-4.00;99.90
13375;DHT22;6756;51.354;15.754;2024-01-30T02:20:40;-4.00;99.90
13375;DHT22;6756;51.354;15.754;2024-01-30T02:24:41;-3.90;99.90
13375;DHT22;6756;51.354;15.754;2024-01-30T02:28:42;-3.90;99.90
13375;DHT22;6756;51.354;15.754;2024-01-30T02:32:43;-3.90;99.90
13375;DHT22;6756;51.354;15.754;2024-01-30T02:36:43;-4.00;99.90
13375;DHT22;6756;51.354;15.754;2024-01-30T02:40:47;-3.90;99.90
13375;DHT22;6756;51.354;15.754;2024-01-30T02:44:47;-4.00;99.90
13375;DHT22;6756;51.354;15.754;2024-01-30T02:48:48;-4.00;99.90
13375;DHT22;6756;51.354;15.754;2024-01-30T02:52:49;-4.10;99.90
13375;DHT22;6756;51.354;15.754;2024-01-30T02:56:50;-4.20;99.90
13375;DHT22;6756;51.354;15.754;2024-01-30T03:00:50;-4.20;99.90
13375;DHT22;6756;51.354;15.754;2024-01-30T03:04:51;-4.20;99.90
13375;DHT22;6756;51.354;15.754;2024-01-30T03:08:52;-4.20;99.90
13375;DHT22;6756;51.354;15.754;2024-01-30T03:12:52;-4.20;99.90
13375;DHT22;6756;51.354;15.754;2024-01-30T03:16:53;-4.20;99.90
13375;DHT22;6756;51.354;15.754;2024-01-30T03:20:54;-4.10;99.90
13375;DHT22;6756;51.354;15.754;2024-01-30T03:24:54;-4.10;99.90
13375;DHT22;6756;51.354;15.754;2024-01-30T03:28:55;-4.00;99.90
13375;DHT22;6756;51.354;15.754;2024-01-30T03:32:56;-4.10;99.90
13375;DHT22;6756;51.354;15.754;2024-01-30T03:36:57;-4.10;99.90
13375;DHT22;6756;51.354;15.754;2024-01-30T03:40:58;-4.10;99.90
13375;DHT22;6756;51.354;15.754;2024-01-30T03:44:59;-4.00;99.90
13375;DHT22;6756;51.354;15.754;2024-01-30T03:48:59;-4.00;99.90
13375;DHT22;6756;51.354;15.754;2024-01-30T03:53:00;-4.00;99.90
13375;DHT22;6756;51.354;15.754;2024-01-30T03:57:00;-4.00;99.90
13375;DHT22;6756;51.354;15.754;2024-01-30T04:01:01;-3.90;99.90
13375;DHT22;6756;51.354;15.754;2024-01-30T04:05:02;-3.60;99.90
13375;DHT22;6756;51.354;15.754;2024-01-30T04:09:03;-3.50;99.90
13375;DHT22;6756;51.354;15.754;2024-01-30T04:13:04;-3.30;99.90
13375;DHT22;6756;51.354;15.754;2024-01-30T04:17:04;-3.30;99.90
13375;DHT22;6756;51.354;15.754;2024-01-30T04:21:05;-3.20;99.90
13375;DHT22;6756;51.354;15.754;2024-01-30T04:25:06;-3.20;99.90
13375;DHT22;6756;51.354;15.754;2024-01-30T04:29:07;-3.20;99.90
13375;DHT22;6756;51.354;15.754;2024-01-30T04:33:08;-3.10;99.90
13375;DHT22;6756;51.354;15.754;2024-01-30T04:37:08;-3.00;99.90
13375;DHT22;6756;51.354;15.754;2024-01-30T04:41:09;-2.90;99.90
13375;DHT22;6756;51.354;15.754;2024-01-30T04:45:10;-2.90;99.90
13375;DHT22;6756;51.354;15.754;2024-01-30T04:49:11;-2.80;99.90
13375;DHT22;6756;51.354;15.754;2024-01-30T04:53:11;-2.70;99.90
13375;DHT22;6756;51.354;15.754;2024-01-30T04:57:12;-2.60;99.90
13375;DHT22;6756;51.354;15.754;2024-01-30T05:01:17;-2.50;99.90
13375;DHT22;6756;51.354;15.754;2024-01-30T05:05:18;-2.50;99.90
13375;DHT22;6756;51.354;15.754;2024-01-30T05:09:18;-2.40;99.90
13375;DHT22;6756;51.354;15.754;2024-01-30T05:13:19;-2.30;99.90
13375;DHT22;6756;51.354;15.754;2024-01-30T05:17:20;-2.30;99.90
13375;DHT22;6756;51.354;15.754;2024-01-30T05:21:21;-2.40;99.90
13375;DHT22;6756;51.354;15.754;2024-01-30T05:25:22;-2.50;99.90
13375;DHT22;6756;51.354;15.754;2024-01-30T05:29:24;-2.60;99.90
13375;DHT22;6756;51.354;15.754;2024-01-30T05:33:24;-2.70;99.90
13375;DHT22;6756;51.354;15.754;2024-01-30T05:37:25;-2.80;99.90
13375;DHT22;6756;51.354;15.754;2024-01-30T05:41:26;-2.80;99.90
13375;DHT22;6756;51.354;15.754;2024-01-30T05:45:27;-2.70;99.90
13375;DHT22;6756;51.354;15.754;2024-01-30T05:49:27;-2.60;99.90
13375;DHT22;6756;51.354;15.754;2024-01-30T05:53:28;-2.50;99.90
13375;DHT22;6756;51.354;15.754;2024-01-30T05:57:29;-2.40;99.90
13375;DHT22;6756;51.354;15.754;2024-01-30T06:01:30;-2.40;99.90
13375;DHT22;6756;51.354;15.754;2024-01-30T06:05:30;-2.40;99.90
13375;DHT22;6756;51.354;15.754;2024-01-30T06:09:31;-2.40;99.90
13375;DHT22;6756;51.354;15.754;2024-01-30T06:13:32;-2.50;99.90
13375;DHT22;6756;51.354;15.754;2024-01-30T06:17:33;-2.70;99.90
13375;DHT22;6756;51.354;15.754;2024-01-30T06:21:34;-2.80;99.90
13375;DHT22;6756;51.354;15.754;2024-01-30T06:25:37;-2.90;99.90
13375;DHT22;6756;51.354;15.754;2024-01-30T06:29:37;-2.90;99.90
13375;DHT22;6756;51.354;15.754;2024-01-30T06:33:38;-2.90;99.90
13375;DHT22;6756;51.354;15.754;2024-01-30T06:37:39;-2.80;99.90
13375;DHT22;6756;51.354;15.754;2024-01-30T06:41:42;-2.70;99.90
13375;DHT22;6756;51.354;15.754;2024-01-30T06:45:43;-2.70;99.90
13375;DHT22;6756;51.354;15.754;2024-01-30T06:49:44;-2.60;99.90
13375;DHT22;6756;51.354;15.754;2024-01-30T06:53:45;-2.40;99.90
13375;DHT22;6756;51.354;15.754;2024-01-30T06:57:46;-2.30;99.90
13375;DHT22;6756;51.354;15.754;2024-01-30T07:01:46;-2.10;99.90
13375;DHT22;6756;51.354;15.754;2024-01-30T07:05:47;-1.90;99.90
13375;DHT22;6756;51.354;15.754;2024-01-30T07:09:49;-1.70;99.90
13375;DHT22;6756;51.354;15.754;2024-01-30T07:13:53;-1.60;99.90
13375;DHT22;6756;51.354;15.754;2024-01-30T07:17:54;-1.40;99.90
13375;DHT22;6756;51.354;15.754;2024-01-30T07:21:55;-1.20;99.90
13375;DHT22;6756;51.354;15.754;2024-01-30T07:25:56;-1.10;99.90
13375;DHT22;6756;51.354;15.754;2024-01-30T07:29:56;-0.90;99.90
13375;DHT22;6756;51.354;15.754;2024-01-30T07:33:57;-0.80;99.90
13375;DHT22;6756;51.354;15.754;2024-01-30T07:37:58;-0.60;99.90
13375;DHT22;6756;51.354;15.754;2024-01-30T07:41:58;-0.40;99.90
13375;DHT22;6756;51.354;15.754;2024-01-30T07:45:59;-0.20;99.90
13375;DHT22;6756;51.354;15.754;2024-01-30T07:50:01;0.00;99.90
13375;DHT22;6756;51.354;15.754;2024-01-30T07:54:02;0.20;99.90
13375;DHT22;6756;51.354;15.754;2024-01-30T07:58:02;0.30;99.90
13375;DHT22;6756;51.354;15.754;2024-01-30T08:02:05;0.60;99.90
13375;DHT22;6756;51.354;15.754;2024-01-30T08:06:06;0.90;99.90
13375;DHT22;6756;51.354;15.754;2024-01-30T08:10:07;1.30;99.90
13375;DHT22;6756;51.354;15.754;2024-01-30T08:14:08;1.60;99.90
13375;DHT22;6756;51.354;15.754;2024-01-30T08:18:09;1.90;99.90
13375;DHT22;6756;51.354;15.754;2024-01-30T08:22:09;2.20;99.90
13375;DHT22;6756;51.354;15.754;2024-01-30T08:26:10;2.60;99.90
13375;DHT22;6756;51.354;15.754;2024-01-30T08:30:11;3.00;99.90
13375;DHT22;6756;51.354;15.754;2024-01-30T08:34:12;3.30;99.90
13375;DHT22;6756;51.354;15.754;2024-01-30T08:38:12;3.70;99.90
13375;DHT22;6756;51.354;15.754;2024-01-30T08:42:13;4.10;99.90
13375;DHT22;6756;51.354;15.754;2024-01-30T08:46:17;4.50;1.00
13375;DHT22;6756;51.354;15.754;2024-01-30T08:50:18;4.80;99.90
13375;DHT22;6756;51.354;15.754;2024-01-30T08:54:19;5.20;1.00
13375;DHT22;6756;51.354;15.754;2024-01-30T08:58:19;5.50;99.90
13375;DHT22;6756;51.354;15.754;2024-01-30T09:02:20;5.90;99.90
13375;DHT22;6756;51.354;15.754;2024-01-30T09:06:21;6.20;99.90
13375;DHT22;6756;51.354;15.754;2024-01-30T09:10:22;6.50;97.20
13375;DHT22;6756;51.354;15.754;2024-01-30T09:14:22;6.80;16.60
13375;DHT22;6756;51.354;15.754;2024-01-30T09:18:23;7.10;1.00
13375;DHT22;6756;51.354;15.754;2024-01-30T09:22:24;7.30;1.00
13375;DHT22;6756;51.354;15.754;2024-01-30T09:26:25;7.40;1.00
13375;DHT22;6756;51.354;15.754;2024-01-30T09:30:29;7.50;1.00
13375;DHT22;6756;51.354;15.754;2024-01-30T09:34:29;7.40;1.00
13375;DHT22;6756;51.354;15.754;2024-01-30T09:38:30;7.50;1.00
13375;DHT22;6756;51.354;15.754;2024-01-30T09:42:37;7.50;1.00
13375;DHT22;6756;51.354;15.754;2024-01-30T09:46:38;7.60;1.00
13375;DHT22;6756;51.354;15.754;2024-01-30T09:50:39;7.60;1.00
13375;DHT22;6756;51.354;15.754;2024-01-30T09:54:40;7.70;1.00
13375;DHT22;6756;51.354;15.754;2024-01-30T09:58:42;7.80;1.00
13375;DHT22;6756;51.354;15.754;2024-01-30T10:02:42;7.80;1.00
13375;DHT22;6756;51.354;15.754;2024-01-30T10:06:43;7.90;1.00
